Time;durP1;ratioP1;P1;durP2;ratioP2;P2;SDS_P1;SDS_P2;PMS_P1;PMS_P2;Temp;Humidity;BMP_temperature;BMP_pressure;BME280_temperature;BME280_humidity;BME280_pressure;Samples;Min_cycle;Max_cycle;Signal;HPM_P1;HPM_P2
2022/01/01 00:02:02;;;;;;;2.00;1.80;;;;;;;14.21;93.09;99037.38;4954813;28;20027;-61
2022/01/01 00:04:28;;;;;;;2.35;2.15;;;;;;;14.02;96.47;99030.13;4955707;28;20040;-61
2022/01/01 00:06:53;;;;;;;3.00;2.70;;;;;;;13.92;97.44;99008.03;4955140;28;20041;-60
2022/01/01 00:09:19;;;;;;;2.50;2.10;;;;;;;13.96;97.29;99001.91;4952305;28;20366;-61
2022/01/01 00:11:44;;;;;;;2.55;2.08;;;;;;;13.93;97.57;99027.78;4948433;28;20398;-60
2022/01/01 00:14:09;;;;;;;1.90;1.80;;;;;;;13.91;96.48;99027.00;4951899;28;20035;-62
2022/01/01 00:16:35;;;;;;;2.03;1.88;;;;;;;13.89;97.93;99039.06;4956047;28;20040;-62
2022/01/01 00:19:00;;;;;;;2.50;1.88;;;;;;;13.86;98.29;99034.00;4951800;28;20170;-61
2022/01/01 00:21:26;;;;;;;2.55;2.20;;;;;;;13.82;98.24;99032.38;4948363;28;20414;-62
2022/01/01 00:23:52;;;;;;;1.77;1.67;;;;;;;13.79;97.75;99053.06;4953813;28;20061;-62
2022/01/01 00:26:17;;;;;;;2.60;2.30;;;;;;;13.67;99.59;99063.69;4956549;28;20424;-62
2022/01/01 00:28:42;;;;;;;1.88;1.77;;;;;;;13.78;99.05;99060.84;4952352;28;20281;-62
2022/01/01 00:31:08;;;;;;;1.73;1.63;;;;;;;13.71;100.00;99048.09;4953378;28;20186;-62
2022/01/01 00:33:33;;;;;;;2.45;2.22;;;;;;;13.57;100.00;99057.91;4954623;28;20069;-61
2022/01/01 00:35:59;;;;;;;1.83;1.73;;;;;;;13.47;100.00;99065.91;4954929;28;20050;-62
2022/01/01 00:38:27;;;;;;;2.38;2.08;;;;;;;13.49;100.00;99051.25;4952244;28;20034;-63
2022/01/01 00:40:52;;;;;;;1.95;1.58;;;;;;;13.38;100.00;99058.38;4951228;28;20489;-62
2022/01/01 00:43:18;;;;;;;2.58;2.15;;;;;;;13.23;100.00;99057.03;4952330;28;20042;-62
2022/01/01 00:45:44;;;;;;;2.10;1.98;;;;;;;13.39;100.00;99053.19;4954060;28;20377;-62
2022/01/01 00:48:09;;;;;;;2.55;1.90;;;;;;;13.32;100.00;99058.53;4950351;28;20488;-61
2022/01/01 00:50:35;;;;;;;2.20;2.10;;;;;;;13.43;100.00;99069.44;4950357;28;20695;-62
2022/01/01 00:53:00;;;;;;;2.40;2.05;;;;;;;13.35;100.00;99072.19;4952769;28;20034;-62
2022/01/01 00:55:26;;;;;;;1.90;1.58;;;;;;;13.24;100.00;99068.97;4952849;28;20464;-63
2022/01/01 00:57:51;;;;;;;1.95;1.60;;;;;;;13.17;100.00;99108.63;4951492;28;20677;-62
2022/01/01 01:00:17;;;;;;;2.70;2.08;;;;;;;13.17;100.00;99095.75;4954139;28;20038;-63
2022/01/01 01:02:42;;;;;;;3.33;2.95;;;;;;;13.10;100.00;99094.19;4936123;28;20035;-63
2022/01/01 01:05:08;;;;;;;2.42;2.22;;;;;;;13.12;100.00;99119.03;4956312;28;20396;-62
2022/01/01 01:07:33;;;;;;;2.33;2.13;;;;;;;13.16;100.00;99096.63;4949932;28;20126;-62
2022/01/01 01:09:59;;;;;;;2.15;1.95;;;;;;;13.14;100.00;99101.84;4932612;28;20042;-63
2022/01/01 01:12:32;;;;;;;2.42;2.22;;;;;;;13.12;100.00;99125.91;4952726;28;20345;-63
2022/01/01 01:14:57;;;;;;;3.58;2.55;;;;;;;13.15;100.00;99136.97;4954390;28;20127;-63
2022/01/01 01:17:22;;;;;;;1.90;1.70;;;;;;;13.32;100.00;99121.19;4949382;28;20027;-62
2022/01/01 01:19:48;;;;;;;2.50;2.30;;;;;;;13.37;98.99;99126.22;4952201;28;20031;-63
2022/01/01 01:22:13;;;;;;;3.60;2.05;;;;;;;13.35;100.00;99125.41;4952155;28;20023;-61
2022/01/01 01:24:39;;;;;;;2.47;2.28;;;;;;;13.30;99.48;99130.66;4952098;28;20035;-62
2022/01/01 01:27:06;;;;;;;3.00;2.65;;;;;;;13.14;100.00;99143.03;4951480;28;20528;-63
2022/01/01 01:29:33;;;;;;;2.75;2.50;;;;;;;13.04;100.00;99143.22;4950227;28;20038;-62
2022/01/01 01:31:58;;;;;;;3.08;2.65;;;;;;;12.93;100.00;99156.31;4958382;28;20030;-62
2022/01/01 01:34:24;;;;;;;3.80;3.47;;;;;;;12.85;100.00;99168.47;4955198;28;20070;-58
2022/01/01 01:36:49;;;;;;;3.53;3.05;;;;;;;12.87;100.00;99155.56;4951254;28;20026;-62
2022/01/01 01:39:15;;;;;;;3.33;3.03;;;;;;;12.76;100.00;99171.22;4949430;28;20409;-63
2022/01/01 01:41:43;;;;;;;2.92;2.70;;;;;;;12.72;100.00;99178.16;4952922;28;20373;-62
2022/01/01 01:44:26;;;;;;;4.35;3.60;;;;;;;12.64;100.00;99181.75;4952347;28;20484;-62
2022/01/01 01:46:52;;;;;;;4.75;4.03;;;;;;;12.58;100.00;99182.69;4949290;28;20058;-63
2022/01/01 01:49:18;;;;;;;4.65;2.92;;;;;;;12.55;100.00;99179.34;4950782;28;20441;-63
2022/01/01 01:51:44;;;;;;;3.40;3.10;;;;;;;12.64;100.00;99199.75;4951861;28;20031;-63
2022/01/01 01:54:10;;;;;;;3.30;2.95;;;;;;;12.59;100.00;99194.69;4951006;28;20334;-63
2022/01/01 01:56:37;;;;;;;3.58;3.22;;;;;;;12.57;100.00;99206.72;4950981;28;20090;-63
2022/01/01 01:59:02;;;;;;;4.18;3.72;;;;;;;12.48;100.00;99188.88;4953825;28;20035;-63
2022/01/01 02:01:28;;;;;;;3.47;3.08;;;;;;;12.47;100.00;99194.06;4955384;28;20090;-63
2022/01/01 02:03:57;;;;;;;3.60;3.25;;;;;;;12.49;100.00;99193.16;4953559;28;20410;-63
2022/01/01 02:06:23;;;;;;;4.05;3.65;;;;;;;12.42;100.00;99225.00;4950376;28;20114;-63
2022/01/01 02:08:50;;;;;;;4.03;3.40;;;;;;;12.41;100.00;99212.16;4950770;28;20058;-63
2022/01/01 02:11:20;;;;;;;3.95;3.58;;;;;;;12.41;100.00;99210.44;4951950;28;20027;-63
2022/01/01 02:17:08;;;;;;;4.30;3.17;;;;;;;12.20;100.00;99218.50;4914291;28;20059;-62
2022/01/01 02:19:44;;;;;;;4.40;4.00;;;;;;;11.93;100.00;99204.34;4954082;28;20042;-62
2022/01/01 02:22:11;;;;;;;5.55;4.20;;;;;;;11.55;100.00;99196.31;4952537;28;20039;-60
2022/01/01 02:24:36;;;;;;;4.95;4.00;;;;;;;11.51;100.00;99202.38;4952335;28;20379;-61
2022/01/01 02:27:02;;;;;;;5.10;3.80;;;;;;;11.45;100.00;99204.19;4951691;28;20361;-61
2022/01/01 02:29:27;;;;;;;6.00;4.47;;;;;;;11.56;100.00;99198.03;4955336;28;20122;-60
2022/01/01 02:31:53;;;;;;;4.90;3.80;;;;;;;11.60;100.00;99203.09;4947548;28;20046;-61
2022/01/01 02:34:19;;;;;;;5.22;4.25;;;;;;;11.60;100.00;99210.81;4948937;28;20027;-59
2022/01/01 02:36:45;;;;;;;7.60;4.45;;;;;;;11.59;100.00;99214.25;4952046;28;20470;-58
2022/01/01 02:39:11;;;;;;;5.65;3.80;;;;;;;11.70;100.00;99207.25;4952443;28;20572;-60
2022/01/01 02:41:38;;;;;;;4.25;3.67;;;;;;;11.68;100.00;99214.13;4950325;28;20426;-60
2022/01/01 02:44:05;;;;;;;4.90;3.80;;;;;;;11.63;100.00;99203.06;4950794;28;20114;-59
2022/01/01 02:46:31;;;;;;;4.68;3.83;;;;;;;11.60;100.00;99221.09;4951100;28;20097;-60
2022/01/01 02:48:57;;;;;;;5.32;3.40;;;;;;;11.60;100.00;99221.09;4952429;28;20436;-60
2022/01/01 02:51:22;;;;;;;5.40;4.05;;;;;;;11.66;100.00;99218.44;4946586;28;20631;-60
2022/01/01 02:53:47;;;;;;;5.78;3.58;;;;;;;11.74;100.00;99223.50;4948228;28;20138;-60
2022/01/01 02:56:13;;;;;;;4.20;3.40;;;;;;;11.67;100.00;99222.69;4950337;28;20085;-61
2022/01/01 02:58:40;;;;;;;3.80;3.38;;;;;;;11.73;100.00;99216.66;4950561;28;20031;-60
2022/01/01 03:01:05;;;;;;;4.97;3.38;;;;;;;11.87;100.00;99213.03;4947993;28;20038;-60
2022/01/01 03:03:30;;;;;;;5.63;3.47;;;;;;;11.90;100.00;99217.25;4949220;28;20124;-61
2022/01/01 03:05:56;;;;;;;3.58;3.15;;;;;;;11.97;100.00;99208.56;4955146;28;20101;-61
2022/01/01 03:08:21;;;;;;;4.63;3.72;;;;;;;11.95;100.00;99207.78;4953279;28;20445;-61
2022/01/01 03:10:47;;;;;;;4.32;3.42;;;;;;;12.04;100.00;99209.34;4948024;28;20034;-60
2022/01/01 03:13:12;;;;;;;4.32;3.60;;;;;;;12.06;100.00;99218.72;4946979;28;20482;-59
2022/01/01 03:15:38;;;;;;;7.38;3.90;;;;;;;12.10;100.00;99228.06;4950272;28;20070;-61
2022/01/01 03:18:03;;;;;;;3.53;3.22;;;;;;;12.11;100.00;99226.38;4949183;28;20168;-61
2022/01/01 03:20:29;;;;;;;5.20;3.40;;;;;;;12.08;100.00;99229.00;4946133;28;20039;-61
2022/01/01 03:22:55;;;;;;;4.88;3.40;;;;;;;12.08;100.00;99201.56;4950942;28;20464;-60
2022/01/01 03:25:20;;;;;;;4.18;3.50;;;;;;;12.04;100.00;99242.75;4953535;28;20035;-60
2022/01/01 03:27:45;;;;;;;4.57;4.03;;;;;;;12.04;100.00;99271.03;4950983;28;20461;-61
2022/01/01 03:30:11;;;;;;;4.95;3.38;;;;;;;12.06;100.00;99216.16;4953393;28;20437;-60
2022/01/01 03:32:36;;;;;;;3.08;2.67;;;;;;;12.15;100.00;99221.16;4948238;28;20028;-59
2022/01/01 03:35:02;;;;;;;3.70;3.30;;;;;;;12.11;100.00;99236.66;4952631;28;20031;-59
2022/01/01 03:37:28;;;;;;;3.65;2.80;;;;;;;12.09;100.00;99217.84;4952604;28;20641;-59
2022/01/01 03:39:53;;;;;;;3.53;3.22;;;;;;;12.06;100.00;99218.72;4946777;28;20035;-59
2022/01/01 03:42:19;;;;;;;5.00;3.75;;;;;;;12.07;100.00;99237.56;4950654;28;20039;-60
2022/01/01 03:44:44;;;;;;;3.78;3.40;;;;;;;12.05;100.00;99229.03;4951446;28;20063;-60
2022/01/01 03:47:10;;;;;;;3.80;3.30;;;;;;;12.05;100.00;99232.44;4951403;28;20043;-59
2022/01/01 03:49:37;;;;;;;3.75;3.17;;;;;;;12.05;100.00;99229.88;4951455;28;20070;-60
2022/01/01 03:52:03;;;;;;;3.92;3.55;;;;;;;12.10;100.00;99247.78;4952314;28;20434;-60
2022/01/01 03:54:29;;;;;;;4.57;2.85;;;;;;;12.03;100.00;99241.06;4952779;28;20134;-60
2022/01/01 03:56:54;;;;;;;5.28;3.50;;;;;;;12.00;100.00;99233.41;4952153;28;20253;-60
2022/01/01 03:59:21;;;;;;;4.93;3.50;;;;;;;11.95;100.00;99248.03;4949078;28;20054;-61
2022/01/01 04:01:47;;;;;;;3.17;2.90;;;;;;;11.91;100.00;99239.53;4953323;28;20038;-60
2022/01/01 04:04:13;;;;;;;5.18;3.45;;;;;;;11.87;100.00;99256.72;4958774;28;20038;-59
2022/01/01 04:06:38;;;;;;;5.78;3.80;;;;;;;11.96;100.00;99262.59;4951790;28;20086;-60
2022/01/01 04:09:03;;;;;;;6.60;4.28;;;;;;;11.90;100.00;99260.94;4949640;28;20039;-60
2022/01/01 04:11:29;;;;;;;4.35;3.33;;;;;;;11.89;100.00;99261.81;4954163;28;20031;-59
2022/01/01 04:13:54;;;;;;;7.50;3.30;;;;;;;11.93;100.00;99280.59;4955492;28;20043;-61
2022/01/01 04:16:21;;;;;;;6.78;4.68;;;;;;;11.90;100.00;99266.94;4953965;28;20061;-60
2022/01/01 04:18:46;;;;;;;3.90;3.53;;;;;;;11.91;100.00;99267.78;4951776;28;20476;-59
2022/01/01 04:21:12;;;;;;;3.72;3.35;;;;;;;11.91;100.00;99254.94;4959549;28;20057;-59
2022/01/01 04:23:39;;;;;;;5.10;3.65;;;;;;;12.03;100.00;99266.75;4956087;28;20417;-59
2022/01/01 04:26:07;;;;;;;3.58;3.10;;;;;;;11.98;100.00;99265.97;4948937;28;20121;-60
2022/01/01 04:28:32;;;;;;;5.40;4.18;;;;;;;11.84;100.00;99272.16;4932996;28;20443;-60
2022/01/01 04:30:58;;;;;;;4.53;4.03;;;;;;;11.87;100.00;99279.84;4953100;28;20043;-61
2022/01/01 04:33:24;;;;;;;4.78;3.55;;;;;;;11.96;100.00;99266.00;4955106;28;20023;-59
2022/01/01 04:35:50;;;;;;;3.95;3.40;;;;;;;11.95;100.00;99263.44;4950304;28;20122;-59
2022/01/01 04:40:49;;;;;;;7.07;3.53;;;;;;;11.75;100.00;99267.13;4954638;28;20500;-60
2022/01/01 04:43:15;;;;;;;4.82;3.53;;;;;;;11.78;100.00;99253.41;4959672;28;20721;-61
2022/01/01 04:45:40;;;;;;;4.68;3.10;;;;;;;11.75;100.00;99254.28;4950895;28;20456;-60
2022/01/01 04:48:05;;;;;;;5.15;3.90;;;;;;;11.71;100.00;99286.00;4940115;28;20031;-61
2022/01/01 04:50:32;;;;;;;5.53;3.80;;;;;;;11.75;100.00;99253.47;4953785;28;20047;-59
2022/01/01 04:52:58;;;;;;;4.60;3.95;;;;;;;11.78;100.00;99250.84;4957240;28;20034;-60
2022/01/01 04:55:24;;;;;;;4.70;3.80;;;;;;;11.71;100.00;99290.31;4949716;28;20398;-60
2022/01/01 04:57:49;;;;;;;4.50;3.47;;;;;;;11.63;100.00;99267.25;4950521;28;20027;-60
2022/01/01 05:00:15;;;;;;;6.03;3.40;;;;;;;11.54;100.00;99251.16;4952756;28;20031;-60
2022/01/01 05:02:40;;;;;;;4.45;3.90;;;;;;;11.54;100.00;99266.56;4951066;28;20031;-60
2022/01/01 05:05:06;;;;;;;7.72;4.53;;;;;;;11.59;100.00;99272.47;4948210;28;20504;-57
2022/01/01 05:07:32;;;;;;;4.47;3.70;;;;;;;11.57;100.00;99248.53;4952253;28;20105;-59
2022/01/01 05:09:59;;;;;;;5.00;4.07;;;;;;;11.59;100.00;99257.91;4954759;28;20084;-60
2022/01/01 05:12:25;;;;;;;5.65;3.50;;;;;;;11.55;100.00;99266.50;4952200;28;20031;-60
2022/01/01 05:14:51;;;;;;;6.32;5.13;;;;;;;11.50;100.00;99288.00;4947085;28;20069;-56
2022/01/01 05:17:18;;;;;;;6.25;4.50;;;;;;;11.43;100.00;99282.06;4954992;28;20340;-62
2022/01/01 05:19:43;;;;;;;5.80;3.70;;;;;;;11.43;100.00;99284.66;4954253;28;20233;-58
2022/01/01 05:22:08;;;;;;;8.52;5.55;;;;;;;11.40;100.00;99279.56;4950792;28;20257;-60
2022/01/01 05:24:34;;;;;;;4.60;3.80;;;;;;;11.43;100.00;99297.47;4948902;28;20325;-60
2022/01/01 05:26:59;;;;;;;4.45;3.47;;;;;;;11.38;100.00;99297.53;4952650;28;20031;-60
2022/01/01 05:29:25;;;;;;;9.07;3.50;;;;;;;11.28;100.00;99313.94;4954673;28;20041;-59
2022/01/01 05:31:50;;;;;;;7.78;3.20;;;;;;;11.25;100.00;99289.97;4949728;28;20062;-59
2022/01/01 05:34:15;;;;;;;4.75;3.45;;;;;;;11.26;100.00;99318.22;4948522;28;20035;-58
2022/01/01 05:36:41;;;;;;;6.68;3.92;;;;;;;11.28;100.00;99306.22;4947777;28;20478;-60
2022/01/01 05:39:08;;;;;;;4.53;3.83;;;;;;;11.25;100.00;99306.22;4952628;28;20029;-61
2022/01/01 05:41:34;;;;;;;5.07;3.65;;;;;;;11.28;100.00;99305.38;4949420;28;20509;-61
2022/01/01 05:43:59;;;;;;;4.38;3.70;;;;;;;11.24;100.00;99316.53;4954445;28;20031;-61
2022/01/01 05:46:25;;;;;;;4.45;3.78;;;;;;;11.17;100.00;99328.56;4951017;28;20054;-60
2022/01/01 05:48:51;;;;;;;4.40;3.17;;;;;;;11.21;100.00;99294.31;4953447;28;20058;-61
2022/01/01 05:51:17;;;;;;;3.80;3.47;;;;;;;11.23;100.00;99318.25;4947678;28;20091;-60
2022/01/01 05:53:42;;;;;;;4.45;3.95;;;;;;;11.24;100.00;99335.34;4949213;28;20110;-59
2022/01/01 05:56:07;;;;;;;5.30;3.60;;;;;;;11.26;100.00;99330.19;4951775;28;20077;-60
2022/01/01 05:58:33;;;;;;;4.22;3.50;;;;;;;11.24;100.00;99335.34;4950044;28;20035;-58
2022/01/01 06:00:58;;;;;;;7.65;5.07;;;;;;;11.19;100.00;99331.13;4949929;28;20046;-59
2022/01/01 06:03:24;;;;;;;7.65;3.45;;;;;;;11.13;100.00;99352.56;4954265;28;20457;-60
2022/01/01 06:05:52;;;;;;;3.75;3.22;;;;;;;11.20;100.00;99343.94;4933755;28;20117;-60
2022/01/01 06:08:18;;;;;;;6.18;3.65;;;;;;;11.11;100.00;99341.47;4951331;28;20682;-60
2022/01/01 06:10:43;;;;;;;6.55;3.42;;;;;;;11.16;100.00;99344.00;4948107;28;20049;-60
2022/01/01 06:13:09;;;;;;;4.97;3.40;;;;;;;11.18;100.00;99360.22;4950432;28;20035;-60
2022/01/01 06:15:34;;;;;;;4.35;3.95;;;;;;;11.13;100.00;99357.69;4950876;28;20059;-61
2022/01/01 06:18:00;;;;;;;5.40;3.45;;;;;;;11.17;100.00;99350.81;4949536;28;20046;-61
2022/01/01 06:20:25;;;;;;;4.45;3.42;;;;;;;11.20;100.00;99356.75;4951642;28;20035;-60
2022/01/01 06:22:51;;;;;;;4.05;3.28;;;;;;;11.22;100.00;99349.91;4951768;28;20030;-60
2022/01/01 06:25:16;;;;;;;3.08;2.78;;;;;;;11.27;100.00;99360.13;4950978;28;20047;-59
2022/01/01 06:27:42;;;;;;;3.42;3.13;;;;;;;11.22;100.00;99364.47;4950190;28;20035;-60
2022/01/01 06:30:08;;;;;;;4.10;3.00;;;;;;;11.27;100.00;99366.13;4947905;28;20035;-59
2022/01/01 06:32:34;;;;;;;4.18;3.38;;;;;;;11.35;100.00;99359.19;4948656;28;20038;-60
2022/01/01 06:34:59;;;;;;;3.08;2.78;;;;;;;11.40;100.00;99365.13;4951654;28;20405;-60
2022/01/01 06:37:25;;;;;;;2.88;2.65;;;;;;;11.45;100.00;99370.22;4950194;28;20041;-60
2022/01/01 06:39:51;;;;;;;4.35;2.80;;;;;;;11.40;100.00;99375.41;4948176;28;20046;-60
2022/01/01 06:42:16;;;;;;;3.42;3.00;;;;;;;11.43;100.00;99371.94;4940719;28;20699;-60
2022/01/01 06:44:42;;;;;;;3.13;2.83;;;;;;;11.46;100.00;99371.91;4952484;28;20047;-58
2022/01/01 06:47:08;;;;;;;4.22;3.08;;;;;;;11.51;100.00;99371.84;4949965;28;20470;-58
2022/01/01 06:49:34;;;;;;;3.40;3.10;;;;;;;11.51;100.00;99376.97;4947918;28;20456;-58
2022/01/01 06:51:59;;;;;;;4.80;2.92;;;;;;;11.50;100.00;99388.97;4949374;28;20023;-60
2022/01/01 06:54:25;;;;;;;3.00;2.70;;;;;;;11.52;100.00;99405.22;4952468;28;20057;-60
2022/01/01 06:56:50;;;;;;;3.30;3.00;;;;;;;11.56;100.00;99403.47;4950144;28;20058;-60
2022/01/01 06:59:15;;;;;;;3.20;2.90;;;;;;;11.57;100.00;99405.19;4948317;28;20035;-60
2022/01/01 07:01:41;;;;;;;3.58;3.28;;;;;;;11.58;100.00;99412.88;4951565;28;20028;-60
2022/01/01 07:04:06;;;;;;;3.38;3.08;;;;;;;11.66;100.00;99390.53;4953077;28;20035;-60
2022/01/01 07:06:33;;;;;;;7.07;3.22;;;;;;;11.67;100.00;99407.63;4948178;28;20037;-59
2022/01/01 07:08:59;;;;;;;4.57;3.38;;;;;;;11.68;100.00;99414.47;4948049;28;20471;-60
2022/01/01 07:11:24;;;;;;;4.97;3.40;;;;;;;11.73;100.00;99404.19;4949886;28;20063;-59
2022/01/01 07:13:50;;;;;;;3.58;2.80;;;;;;;11.74;100.00;99398.19;4950525;28;20234;-60
2022/01/01 07:16:17;;;;;;;3.40;3.10;;;;;;;11.77;100.00;99408.41;4946205;28;20058;-59
2022/01/01 07:18:43;;;;;;;3.28;2.97;;;;;;;11.74;100.00;99399.03;4946893;28;20032;-61
2022/01/01 07:21:08;;;;;;;3.20;2.90;;;;;;;11.74;100.00;99400.75;4949860;28;20035;-59
2022/01/01 07:23:33;;;;;;;3.97;3.05;;;;;;;11.66;100.00;99429.06;4948978;28;20038;-61
2022/01/01 07:25:59;;;;;;;3.92;3.05;;;;;;;11.70;100.00;99399.91;4933228;28;20045;-61
2022/01/01 07:28:24;;;;;;;3.35;2.55;;;;;;;11.72;100.00;99395.63;4954880;28;20077;-60
2022/01/01 07:30:50;;;;;;;3.80;3.42;;;;;;;11.66;100.00;99385.41;4955470;28;20031;-61
2022/01/01 07:33:15;;;;;;;3.70;3.40;;;;;;;11.78;100.00;99397.28;4956715;28;20027;-61
2022/01/01 07:35:42;;;;;;;4.35;3.08;;;;;;;11.77;100.00;99400.69;4953622;28;20106;-60
2022/01/01 07:38:08;;;;;;;3.10;2.90;;;;;;;11.81;100.00;99394.66;4953335;28;20035;-60
2022/01/01 07:40:34;;;;;;;3.70;3.03;;;;;;;11.80;100.00;99398.94;4957734;28;20485;-61
2022/01/01 07:43:12;;;;;;;3.33;2.90;;;;;;;11.76;100.00;99396.41;4952212;28;20035;-60
2022/01/01 07:45:38;;;;;;;3.55;3.10;;;;;;;11.77;100.00;99395.56;4950253;28;20412;-58
2022/01/01 07:48:08;;;;;;;2.92;2.63;;;;;;;11.87;100.00;99410.88;4953938;28;20065;-60
2022/01/01 07:50:34;;;;;;;4.10;3.00;;;;;;;11.85;100.00;99380.91;4955695;28;20039;-60
2022/01/01 07:52:59;;;;;;;4.38;3.15;;;;;;;11.95;100.00;99402.22;4952268;28;20047;-61
2022/01/01 07:55:25;;;;;;;3.97;2.83;;;;;;;11.94;100.00;99405.63;4951385;28;20035;-61
2022/01/01 07:57:50;;;;;;;2.97;2.67;;;;;;;11.98;100.00;99405.59;4953921;28;20880;-60
2022/01/01 08:00:16;;;;;;;3.38;2.78;;;;;;;11.98;100.00;99410.72;4953353;28;20453;-61
2022/01/01 08:02:43;;;;;;;3.67;2.90;;;;;;;12.03;100.00;99393.53;4952926;28;20329;-61
2022/01/01 08:05:09;;;;;;;4.50;2.78;;;;;;;12.03;100.00;99405.53;4950470;28;20042;-60
2022/01/01 08:07:35;;;;;;;3.53;2.90;;;;;;;12.10;100.00;99408.00;4954978;28;20540;-61
2022/01/01 08:10:00;;;;;;;4.38;3.00;;;;;;;12.17;100.00;99401.94;4957846;28;20059;-60
2022/01/01 08:12:26;;;;;;;3.35;2.47;;;;;;;12.24;100.00;99402.69;4951110;28;20122;-61
2022/01/01 08:14:56;;;;;;;2.85;2.10;;;;;;;12.25;100.00;99420.69;4956271;28;20121;-61
2022/01/01 08:17:24;;;;;;;3.08;2.58;;;;;;;12.33;100.00;99410.28;4951930;28;20513;-60
2022/01/01 08:19:50;;;;;;;3.83;2.85;;;;;;;12.40;100.00;99417.03;4952731;28;20403;-61
2022/01/01 08:22:16;;;;;;;2.55;2.30;;;;;;;12.53;100.00;99425.44;4954610;28;20039;-60
2022/01/01 08:24:42;;;;;;;2.58;2.30;;;;;;;12.58;100.00;99415.94;4955078;28;20042;-61
2022/01/01 08:27:07;;;;;;;2.88;2.50;;;;;;;12.51;100.00;99440.91;4953853;28;20041;-61
2022/01/01 08:29:34;;;;;;;4.13;3.38;;;;;;;12.46;100.00;99422.09;4951527;28;20397;-60
2022/01/01 08:31:59;;;;;;;3.45;2.10;;;;;;;12.41;100.00;99430.75;4952612;28;20031;-60
2022/01/01 08:34:25;;;;;;;2.90;2.53;;;;;;;12.42;100.00;99419.59;4954503;28;20549;-61
2022/01/01 08:36:53;;;;;;;2.90;2.38;;;;;;;12.45;100.00;99420.41;4949338;28;20030;-61
2022/01/01 08:39:20;;;;;;;2.95;2.20;;;;;;;12.28;100.00;99437.78;4950242;28;20054;-60
2022/01/01 08:41:46;;;;;;;6.13;2.97;;;;;;;12.24;100.00;99426.69;4957387;28;20426;-60
2022/01/01 08:44:12;;;;;;;2.63;2.30;;;;;;;12.27;100.00;99428.34;4955223;28;20089;-58
2022/01/01 08:46:38;;;;;;;2.70;2.50;;;;;;;12.34;100.00;99443.69;4949458;28;20134;-60
2022/01/01 08:49:05;;;;;;;6.05;3.05;;;;;;;12.35;100.00;99440.22;4956918;28;20118;-60
2022/01/01 08:51:33;;;;;;;2.28;2.05;;;;;;;12.43;100.00;99454.72;4952780;28;20082;-58
2022/01/01 08:53:58;;;;;;;3.22;2.33;;;;;;;12.41;100.00;99454.75;4954454;28;20099;-60
2022/01/01 08:56:24;;;;;;;4.53;2.67;;;;;;;12.44;100.00;99457.25;4949212;28;20043;-60
2022/01/01 08:58:49;;;;;;;2.90;2.60;;;;;;;12.48;100.00;99458.91;4952253;28;20504;-60
2022/01/01 09:01:15;;;;;;;2.25;2.15;;;;;;;12.56;100.00;99472.53;4954751;28;20577;-60
2022/01/01 09:03:41;;;;;;;4.25;2.20;;;;;;;12.66;100.00;99463.81;4952406;28;20272;-59
2022/01/01 09:06:08;;;;;;;3.90;2.63;;;;;;;12.71;100.00;99468.91;4948581;28;20034;-60
2022/01/01 09:08:36;;;;;;;3.05;2.65;;;;;;;12.72;100.00;99478.34;4951476;28;20050;-60
2022/01/01 09:11:02;;;;;;;4.03;2.75;;;;;;;12.80;100.00;99472.22;4955455;28;20248;-61
2022/01/01 09:13:28;;;;;;;3.10;2.53;;;;;;;12.90;100.00;99478.03;4951466;28;20035;-60
2022/01/01 09:15:54;;;;;;;5.07;3.20;;;;;;;13.02;100.00;99471.88;4949553;28;20056;-60
2022/01/01 09:18:19;;;;;;;6.25;3.30;;;;;;;12.98;100.00;99477.97;4951893;28;20039;-61
2022/01/01 09:20:44;;;;;;;2.67;2.40;;;;;;;13.00;100.00;99471.91;4955695;28;20075;-61
2022/01/01 09:23:10;;;;;;;3.72;2.28;;;;;;;13.02;100.00;99474.47;4952598;28;20378;-61
2022/01/01 09:25:38;;;;;;;2.95;2.65;;;;;;;13.06;100.00;99465.81;4949794;28;20543;-61
2022/01/01 09:28:04;;;;;;;2.65;2.35;;;;;;;13.10;100.00;99477.75;4956617;28;20063;-59
2022/01/01 09:30:29;;;;;;;5.03;2.40;;;;;;;13.04;100.00;99468.41;4952238;28;20055;-54
2022/01/01 09:32:55;;;;;;;4.53;2.25;;;;;;;12.99;100.00;99488.22;4951037;28;20050;-60
2022/01/01 09:35:20;;;;;;;2.80;2.17;;;;;;;12.96;100.00;99469.41;4949142;28;20030;-60
2022/01/01 09:37:46;;;;;;;5.15;3.10;;;;;;;12.91;100.00;99455.75;4953680;28;20053;-59
2022/01/01 09:40:13;;;;;;;4.25;2.30;;;;;;;12.86;100.00;99468.66;4954000;28;20027;-59
2022/01/01 09:42:39;;;;;;;3.20;2.90;;;;;;;12.91;100.00;99473.75;4949832;28;20457;-60
2022/01/01 09:45:06;;;;;;;2.83;2.60;;;;;;;12.94;100.00;99479.72;4951458;28;20027;-59
2022/01/01 09:47:31;;;;;;;2.42;2.22;;;;;;;13.18;100.00;99475.94;4953906;28;20035;-59
2022/01/01 09:49:57;;;;;;;3.20;2.72;;;;;;;13.28;100.00;99480.09;4958839;28;20027;-59
2022/01/01 09:52:23;;;;;;;2.60;2.17;;;;;;;13.26;100.00;99482.69;4951031;28;20317;-60
2022/01/01 09:54:49;;;;;;;2.63;2.35;;;;;;;13.26;100.00;99484.41;4947433;28;20455;-60
2022/01/01 09:57:14;;;;;;;2.63;2.33;;;;;;;13.35;100.00;99497.13;4952047;28;20336;-60
2022/01/01 09:59:40;;;;;;;4.10;3.30;;;;;;;13.41;100.00;99478.97;4954192;28;20345;-60
2022/01/01 10:02:06;;;;;;;3.35;2.75;;;;;;;13.32;100.00;99478.31;4949631;28;20500;-61
2022/01/01 10:04:45;;;;;;;4.88;2.92;;;;;;;13.24;100.00;99480.97;4948955;28;20042;-59
2022/01/01 10:07:12;;;;;;;2.08;1.75;;;;;;;13.32;100.00;99486.88;4951133;28;20154;-61
2022/01/01 10:09:38;;;;;;;3.25;2.08;;;;;;;13.22;100.00;99482.75;4953864;28;20043;-59
2022/01/01 10:12:06;;;;;;;2.50;2.13;;;;;;;13.16;100.00;99493.97;4948398;28;20479;-58
2022/01/01 10:14:40;;;;;;;1.85;1.75;;;;;;;13.30;100.00;99474.91;4950538;28;20082;-60
2022/01/01 10:17:15;;;;;;;3.28;2.13;;;;;;;13.28;100.00;99480.09;4952121;28;20422;-57
2022/01/01 10:19:41;;;;;;;1.95;1.70;;;;;;;13.44;100.00;99478.09;4953523;28;20027;-58
2022/01/01 10:22:11;;;;;;;3.00;1.80;;;;;;;13.54;100.00;99493.34;4950765;28;20489;-57
2022/01/01 10:30:05;;;;;;;2.53;2.13;;;;;;;13.54;100.00;99495.09;4949833;28;20042;-58
2022/01/01 10:32:30;;;;;;;1.60;1.50;;;;;;;13.39;100.00;99514.25;4951643;28;20046;-59
2022/01/01 10:34:56;;;;;;;2.17;1.98;;;;;;;13.42;100.00;99490.13;4953051;28;20621;-59
2022/01/01 10:37:29;;;;;;;2.50;1.77;;;;;;;13.37;100.00;99507.38;4951421;28;20348;-58
2022/01/01 10:39:55;;;;;;;2.60;2.40;;;;;;;13.47;100.00;99504.66;4947888;28;20496;-58
2022/01/01 10:42:22;;;;;;;2.60;1.48;;;;;;;13.49;100.00;99497.78;4949716;28;20273;-59
2022/01/01 10:44:49;;;;;;;1.70;1.60;;;;;;;13.41;100.00;99539.97;4956434;28;20041;-59
2022/01/01 10:47:20;;;;;;;1.88;1.77;;;;;;;13.39;100.00;99523.69;4954401;28;20039;-57
2022/01/01 10:52:32;;;;;;;2.40;1.70;;;;;;;13.52;100.00;99513.16;4951474;28;20034;-57
2022/01/01 10:54:59;;;;;;;1.98;1.65;;;;;;;13.58;100.00;99505.31;4951802;28;20195;-58
2022/01/01 10:57:27;;;;;;;1.80;1.70;;;;;;;13.71;100.00;99493.91;4950819;28;20109;-59
2022/01/01 11:00:09;;;;;;;1.60;1.50;;;;;;;13.77;100.00;99502.44;4948177;28;20154;-58
2022/01/01 11:02:36;;;;;;;1.65;1.55;;;;;;;13.94;100.00;99510.69;4952197;28;20043;-56
2022/01/01 11:05:03;;;;;;;1.40;1.30;;;;;;;13.92;100.00;99502.16;4956645;28;20048;-59
2022/01/01 11:07:30;;;;;;;1.67;1.55;;;;;;;13.73;100.00;99501.63;4954088;28;20039;-59
2022/01/01 11:09:57;;;;;;;2.63;1.92;;;;;;;13.64;100.00;99512.09;4949401;28;20073;-58
2022/01/01 11:12:27;;;;;;;3.35;1.70;;;;;;;13.74;100.00;99505.91;4953701;28;20046;-59
2022/01/01 11:14:54;;;;;;;1.52;1.40;;;;;;;13.63;100.00;99505.22;4953215;28;20055;-57
2022/01/01 11:17:22;;;;;;;1.48;1.38;;;;;;;13.53;100.00;99512.28;4950224;28;20397;-59
2022/01/01 11:19:47;;;;;;;2.22;2.03;;;;;;;13.50;100.00;99498.59;4947612;28;20527;-58
2022/01/01 11:22:13;;;;;;;1.70;1.60;;;;;;;13.63;100.00;99490.63;4938171;28;20027;-58
2022/01/01 11:24:40;;;;;;;1.80;1.70;;;;;;;13.77;100.00;99494.69;4951051;28;20039;-58
2022/01/01 11:27:06;;;;;;;1.45;1.08;;;;;;;13.73;100.00;99501.63;4947893;28;20122;-61
2022/01/01 11:29:38;;;;;;;1.45;1.35;;;;;;;13.64;100.00;99492.34;4950090;28;20038;-60
2022/01/01 11:32:06;;;;;;;1.60;1.50;;;;;;;13.65;100.00;99504.34;4953427;28;20027;-57
2022/01/01 11:34:36;;;;;;;1.50;1.40;;;;;;;13.63;100.00;99513.81;4950404;28;20038;-59
2022/01/01 11:37:03;;;;;;;1.33;1.23;;;;;;;13.47;100.00;99499.50;4949622;28;20027;-57